Track Соколов Дмитрий

Time Latitude Longitude Accuracy (66% radius in meters) Altitude (meters) Speed (km/hour) Bearing (degrees) Battery (%) GPS flag
09:04:46 58.487130 49.755112 0 0 0 0 1 delete
09:04:45 58.487099 49.755182 0 0 0 0 1 delete
09:04:44 58.487071 49.755257 0 0 0 0 1 delete
09:04:43 58.487042 49.755339 0 0 0 0 1 delete
09:04:42 58.487012 49.755422 0 0 0 0 1 delete
09:04:41 58.486981 49.755507 0 0 0 0 1 delete
09:04:40 58.486949 49.755586 0 0 0 0 1 delete
09:04:39 58.486919 49.755666 0 0 0 0 1 delete
09:04:38 58.486891 49.755742 0 0 0 0 1 delete
09:04:37 58.486863 49.755814 0 0 0 0 1 delete
09:04:36 58.486835 49.755884 0 0 0 0 1 delete
09:04:35 58.486809 49.755955 0 0 0 0 1 delete
09:04:34 58.486782 49.756029 0 0 0 0 1 delete
09:04:33 58.486755 49.756104 0 0 0 0 1 delete
09:04:32 58.486722 49.756181 0 0 0 0 1 delete
09:04:31 58.486685 49.756261 0 0 0 0 1 delete
09:04:30 58.486646 49.756342 0 0 0 0 1 delete
09:04:29 58.486611 49.756421 0 0 0 0 1 delete
09:04:28 58.486580 49.756496 0 0 0 0 1 delete
09:04:27 58.486553 49.756569 0 0 0 0 1 delete
09:04:26 58.486526 49.756637 0 0 0 0 1 delete
09:04:25 58.486496 49.756706 0 0 0 0 1 delete
09:04:24 58.486463 49.756773 0 0 0 0 1 delete
09:04:23 58.486434 49.756839 0 0 0 0 1 delete
09:04:22 58.486409 49.756898 0 0 0 0 1 delete
09:04:21 58.486391 49.756950 0 0 0 0 1 delete
09:04:20 58.486373 49.757005 0 0 0 0 1 delete
09:04:19 58.486355 49.757061 0 0 0 0 1 delete
09:04:18 58.486335 49.757118 0 0 0 0 1 delete
09:04:17 58.486310 49.757176 0 0 0 0 1 delete
09:04:16 58.486284 49.757235 0 0 0 0 1 delete
09:04:15 58.486258 49.757300 0 0 0 0 1 delete
09:04:14 58.486236 49.757369 0 0 0 0 1 delete
09:04:13 58.486212 49.757438 0 0 0 0 1 delete
09:04:12 58.486182 49.757513 0 0 0 0 1 delete
09:04:11 58.486149 49.757584 0 0 0 0 1 delete
09:04:10 58.486122 49.757655 0 0 0 0 1 delete
09:04:09 58.486097 49.757728 0 0 0 0 1 delete
09:04:08 58.486075 49.757804 0 0 0 0 1 delete
09:04:07 58.486047 49.757881 0 0 0 0 1 delete
09:04:06 58.486019 49.757958 0 0 0 0 1 delete
09:04:05 58.485992 49.758040 0 0 0 0 1 delete
09:04:04 58.485973 49.758117 0 0 0 0 1 delete
09:04:03 58.485962 49.758188 0 0 0 0 1 delete
09:04:02 58.485954 49.758252 0 0 0 0 1 delete
09:04:01 58.485948 49.758316 0 0 0 0 1 delete
09:04:00 58.485942 49.758379 0 0 0 0 1 delete
09:03:59 58.485936 49.758446 0 0 0 0 1 delete
09:03:58 58.485935 49.758510 0 0 0 0 1 delete
09:03:57 58.485940 49.758572 0 0 0 0 1 delete